Time;durP1;ratioP1;P1;durP2;ratioP2;P2;SDS_P1;SDS_P2;PMS_P1;PMS_P2;Temp;Humidity;BMP_temperature;BMP_pressure;BME280_temperature;BME280_humidity;BME280_pressure;Samples;Min_cycle;Max_cycle;Signal;HPM_P1;HPM_P2
2021/11/13 00:02:12;;;;;;;17.53;8.10;;;;;;;-145.18;100.00;60484.78;5066601;28;20023;-69
2021/11/13 00:04:38;;;;;;;18.23;7.80;;;;;;;-145.18;100.00;60484.78;5067975;28;20531;-69
2021/11/13 00:07:03;;;;;;;16.83;7.80;;;;;;;-145.18;100.00;60484.78;5067048;28;20024;-69
2021/11/13 00:09:28;;;;;;;18.90;8.13;;;;;;;-145.18;100.00;60484.78;5071915;28;20358;-69
2021/11/13 00:11:56;;;;;;;14.17;7.07;;;;;;;-145.18;100.00;60484.78;5068274;28;20618;-69
2021/11/13 00:14:22;;;;;;;14.97;7.03;;;;;;;-145.18;100.00;60484.78;5070167;28;20110;-69
2021/11/13 00:16:47;;;;;;;14.80;6.43;;;;;;;-145.18;100.00;60484.78;5068202;28;20353;-69
2021/11/13 00:19:13;;;;;;;17.73;7.90;;;;;;;-145.18;100.00;60484.78;5069532;28;20067;-69
2021/11/13 00:21:39;;;;;;;16.00;7.70;;;;;;;-145.18;100.00;60484.78;5070695;28;20054;-69
2021/11/13 00:24:04;;;;;;;18.63;6.87;;;;;;;-145.18;100.00;60484.78;5070350;28;20369;-69
2021/11/13 00:26:30;;;;;;;16.50;6.90;;;;;;;-145.18;100.00;60484.78;5069339;28;20059;-69
2021/11/13 00:28:56;;;;;;;15.43;6.87;;;;;;;-145.18;100.00;60484.78;5067298;28;20157;-69
2021/11/13 00:31:22;;;;;;;16.40;7.10;;;;;;;-145.18;100.00;60484.78;5067039;28;20630;-69
2021/11/13 00:33:47;;;;;;;18.47;7.03;;;;;;;-145.18;100.00;60484.78;5070951;28;20279;-69
2021/11/13 00:36:13;;;;;;;15.73;7.07;;;;;;;-145.18;100.00;60484.78;5070060;28;20046;-69
2021/11/13 00:38:38;;;;;;;13.83;6.63;;;;;;;-145.18;100.00;60484.78;5072074;28;20031;-69
2021/11/13 00:41:04;;;;;;;15.60;7.73;;;;;;;-145.18;100.00;60484.78;5070322;28;20151;-68
2021/11/13 00:43:29;;;;;;;16.03;6.87;;;;;;;-145.18;100.00;60484.78;5069729;28;20070;-69
2021/11/13 00:45:55;;;;;;;15.30;6.97;;;;;;;-145.18;100.00;60484.78;5069071;28;20051;-69
2021/11/13 00:48:21;;;;;;;16.20;7.47;;;;;;;-145.18;100.00;60484.78;5069665;28;20197;-69
2021/11/13 00:50:46;;;;;;;16.67;7.57;;;;;;;-145.18;100.00;60484.78;5068919;28;20533;-68
2021/11/13 00:53:12;;;;;;;15.83;7.60;;;;;;;-145.18;100.00;60484.78;5070318;28;20036;-69
2021/11/13 00:55:38;;;;;;;15.23;7.23;;;;;;;-145.18;100.00;60484.78;5069802;28;20601;-68
2021/11/13 00:58:03;;;;;;;18.53;8.07;;;;;;;-145.18;100.00;60484.78;5070037;28;20122;-69
2021/11/13 01:00:29;;;;;;;15.37;7.03;;;;;;;-145.18;100.00;60484.78;5070223;28;20024;-69
2021/11/13 01:02:54;;;;;;;15.13;7.77;;;;;;;-145.18;100.00;60484.78;5070596;28;20032;-69
2021/11/13 01:05:20;;;;;;;16.73;6.93;;;;;;;-145.18;100.00;60484.78;5069154;28;20048;-69
2021/11/13 01:07:46;;;;;;;16.40;7.80;;;;;;;-145.18;100.00;60484.78;5069644;28;20044;-68
2021/11/13 01:10:14;;;;;;;14.53;7.17;;;;;;;-145.18;100.00;60484.78;5069697;28;20751;-68
2021/11/13 01:12:40;;;;;;;13.80;6.77;;;;;;;-145.18;100.00;60484.78;5069493;28;20637;-68
2021/11/13 01:15:07;;;;;;;16.53;7.50;;;;;;;-145.18;100.00;60484.78;5070303;28;20126;-68
2021/11/13 01:17:33;;;;;;;15.80;7.43;;;;;;;-145.18;100.00;60484.78;5071516;28;20264;-68
2021/11/13 01:19:59;;;;;;;17.10;7.13;;;;;;;-145.18;100.00;60484.78;5068930;28;20056;-68
2021/11/13 01:22:24;;;;;;;20.10;7.97;;;;;;;-145.18;100.00;60484.78;5071373;28;20039;-68
2021/11/13 01:24:50;;;;;;;14.40;7.17;;;;;;;-145.18;100.00;60484.78;5071711;28;20035;-71
2021/11/13 01:27:15;;;;;;;18.73;7.80;;;;;;;-145.18;100.00;60484.78;5071290;28;20028;-68
2021/11/13 01:29:42;;;;;;;14.07;6.43;;;;;;;-145.18;100.00;60484.78;5070595;28;20572;-68
2021/11/13 01:32:08;;;;;;;15.27;6.70;;;;;;;-145.18;100.00;60484.78;5068102;28;20422;-68
2021/11/13 01:34:34;;;;;;;13.67;7.10;;;;;;;-145.18;100.00;60484.78;5068492;28;20684;-68
2021/11/13 01:36:59;;;;;;;16.40;7.43;;;;;;;-145.18;100.00;60484.78;5069957;28;20038;-68
2021/11/13 01:39:25;;;;;;;14.70;6.93;;;;;;;-145.18;100.00;60484.78;5068957;28;20479;-69
2021/11/13 01:41:55;;;;;;;14.17;7.30;;;;;;;-145.18;100.00;60484.78;5069778;28;20067;-68
2021/11/13 01:44:20;;;;;;;12.97;6.70;;;;;;;-145.18;100.00;60484.78;5069015;28;20043;-69
2021/11/13 01:46:46;;;;;;;18.97;7.53;;;;;;;-145.18;100.00;60484.78;5068180;28;20289;-69
2021/11/13 01:49:12;;;;;;;16.03;7.37;;;;;;;-145.18;100.00;60484.78;5070016;28;20198;-68
2021/11/13 01:51:38;;;;;;;17.13;7.13;;;;;;;-145.18;100.00;60484.78;5069024;28;20092;-69
2021/11/13 01:54:07;;;;;;;17.97;8.00;;;;;;;-145.18;100.00;60484.78;5069187;28;20048;-69
2021/11/13 01:56:38;;;;;;;16.17;7.57;;;;;;;-145.18;100.00;60484.78;5069456;28;20075;-69
2021/11/13 01:59:06;;;;;;;16.85;7.13;;;;;;;-145.18;100.00;60484.78;5069876;28;20032;-69
2021/11/13 02:01:33;;;;;;;18.50;8.10;;;;;;;-145.18;100.00;60484.78;5069318;28;20190;-69
2021/11/13 02:03:58;;;;;;;20.43;7.87;;;;;;;-145.18;100.00;60484.78;5048992;22;20081;-68
2021/11/13 02:06:24;;;;;;;19.57;8.80;;;;;;;-145.18;100.00;60484.78;5036089;28;20024;-68
2021/11/13 02:08:50;;;;;;;18.60;8.17;;;;;;;-145.18;100.00;60484.78;5036064;28;20120;-68
2021/11/13 02:11:19;;;;;;;18.53;8.37;;;;;;;-145.18;100.00;60484.78;5037227;28;20032;-68
2021/11/13 02:13:44;;;;;;;20.83;8.90;;;;;;;-145.18;100.00;60484.78;5041272;28;20047;-68
2021/11/13 02:16:10;;;;;;;22.20;9.23;;;;;;;-145.18;100.00;60484.78;5029517;28;20210;-68
2021/11/13 02:18:37;;;;;;;15.93;7.27;;;;;;;-145.18;100.00;60484.78;5040778;28;20024;-68
2021/11/13 02:21:03;;;;;;;21.20;8.73;;;;;;;-145.18;100.00;60484.78;5043592;28;20408;-68
2021/11/13 02:23:28;;;;;;;18.93;8.47;;;;;;;-145.18;100.00;60484.78;5040272;28;20029;-68
2021/11/13 02:25:55;;;;;;;20.33;9.07;;;;;;;-145.18;100.00;60484.78;5045811;28;20028;-68
2021/11/13 02:28:23;;;;;;;19.10;8.47;;;;;;;-145.18;100.00;60484.78;5042335;28;20089;-68
2021/11/13 02:30:50;;;;;;;17.00;7.87;;;;;;;-145.18;100.00;60484.78;5036691;28;20040;-68
2021/11/13 02:33:16;;;;;;;18.93;8.93;;;;;;;-145.18;100.00;60484.78;5041395;28;20028;-69
2021/11/13 02:35:43;;;;;;;21.37;9.03;;;;;;;-145.18;100.00;60484.78;5029623;28;20096;-68
2021/11/13 02:38:13;;;;;;;19.20;8.43;;;;;;;-145.18;100.00;60484.78;5041294;28;20043;-68
2021/11/13 02:40:40;;;;;;;20.37;8.90;;;;;;;-145.18;100.00;60484.78;5045361;28;20054;-68
2021/11/13 02:43:06;;;;;;;17.33;8.40;;;;;;;-145.18;100.00;60484.78;5042992;28;20025;-68
2021/11/13 02:45:32;;;;;;;17.47;8.27;;;;;;;-145.18;100.00;60484.78;5031126;28;20033;-68
2021/11/13 02:48:01;;;;;;;21.40;9.03;;;;;;;-145.18;100.00;60484.78;5039929;28;20029;-68
2021/11/13 02:50:26;;;;;;;19.43;8.53;;;;;;;-145.18;100.00;60484.78;5032625;28;20032;-68
2021/11/13 02:52:55;;;;;;;19.37;8.23;;;;;;;-145.18;100.00;60484.78;5038979;28;20025;-68
2021/11/13 02:55:22;;;;;;;19.23;8.87;;;;;;;-145.18;100.00;60484.78;5031684;28;20040;-68
2021/11/13 02:57:48;;;;;;;19.87;8.47;;;;;;;-145.18;100.00;60484.78;5039566;28;20025;-68
2021/11/13 03:00:17;;;;;;;15.93;8.67;;;;;;;-145.18;100.00;60484.78;5040764;28;20012;-68
2021/11/13 03:02:42;;;;;;;21.83;8.77;;;;;;;-145.18;100.00;60484.78;5037988;28;20488;-68
2021/11/13 03:05:26;;;;;;;21.97;8.50;;;;;;;-145.18;100.00;60484.78;5039319;28;20543;-68
2021/11/13 03:07:53;;;;;;;20.43;8.77;;;;;;;-145.18;100.00;60484.78;5028286;28;20511;-68
2021/11/13 03:10:19;;;;;;;21.73;9.13;;;;;;;-145.18;100.00;60484.78;5033843;28;20032;-68
2021/11/13 03:12:45;;;;;;;21.63;8.60;;;;;;;-145.18;100.00;60484.78;5039782;28;20079;-68
2021/11/13 03:15:15;;;;;;;19.70;8.90;;;;;;;-145.18;100.00;60484.78;5038661;28;20068;-68
2021/11/13 03:17:40;;;;;;;20.13;8.50;;;;;;;-145.18;100.00;60484.78;5039854;28;20477;-68
2021/11/13 03:20:12;;;;;;;18.87;8.17;;;;;;;-145.18;100.00;60484.78;5038575;28;20276;-68
2021/11/13 03:22:39;;;;;;;19.05;7.95;;;;;;;-145.18;100.00;60484.78;5038844;28;20025;-68
2021/11/13 03:25:07;;;;;;;18.77;7.73;;;;;;;-145.18;100.00;60484.78;5038959;28;20063;-68
2021/11/13 03:27:34;;;;;;;18.20;7.67;;;;;;;-145.18;100.00;60484.78;5039334;28;20036;-69
2021/11/13 03:30:02;;;;;;;15.33;7.57;;;;;;;-145.18;100.00;60484.78;5036349;28;20029;-68
2021/11/13 03:32:27;;;;;;;15.57;7.30;;;;;;;-145.18;100.00;60484.78;5039970;28;20056;-69
2021/11/13 03:34:53;;;;;;;16.07;7.47;;;;;;;-145.18;100.00;60484.78;5035060;28;20021;-69
2021/11/13 03:37:18;;;;;;;16.03;7.43;;;;;;;-145.18;100.00;60484.78;5036158;28;20028;-69
2021/11/13 03:39:44;;;;;;;15.67;7.27;;;;;;;-145.18;100.00;60484.78;5032987;28;20037;-69
2021/11/13 03:42:09;;;;;;;14.77;6.73;;;;;;;-145.18;100.00;60484.78;5040178;28;20496;-69
2021/11/13 03:44:35;;;;;;;16.30;6.90;;;;;;;-145.18;100.00;60484.78;5039769;28;20309;-69
2021/11/13 03:47:00;;;;;;;17.93;7.40;;;;;;;-145.18;100.00;60484.78;5039029;28;20489;-69
2021/11/13 03:49:25;;;;;;;15.70;7.63;;;;;;;-145.18;100.00;60484.78;5038209;28;20021;-69
2021/11/13 03:51:51;;;;;;;18.07;7.80;;;;;;;-145.18;100.00;60484.78;5037989;28;20432;-69
2021/11/13 03:54:16;;;;;;;15.20;7.00;;;;;;;-145.18;100.00;60484.78;5039083;28;20036;-69
2021/11/13 03:56:42;;;;;;;16.83;7.97;;;;;;;-145.18;100.00;60484.78;5029564;28;20040;-69
2021/11/13 03:59:07;;;;;;;14.37;7.43;;;;;;;-145.18;100.00;60484.78;5038658;28;20028;-68
2021/11/13 04:01:33;;;;;;;16.63;6.90;;;;;;;-145.18;100.00;60484.78;5038584;28;20056;-68
2021/11/13 04:03:59;;;;;;;13.23;6.73;;;;;;;-145.18;100.00;60484.78;5037764;28;20689;-68
2021/11/13 04:06:25;;;;;;;22.30;7.93;;;;;;;-145.18;100.00;60484.78;5033997;28;20048;-69
2021/11/13 04:08:51;;;;;;;20.00;7.83;;;;;;;-145.18;100.00;60484.78;5039009;28;20172;-68
2021/11/13 04:11:16;;;;;;;17.43;7.00;;;;;;;-145.18;100.00;60484.78;5036718;28;20120;-68
2021/11/13 04:13:41;;;;;;;17.17;7.43;;;;;;;-145.18;100.00;60484.78;5037853;28;20182;-68
2021/11/13 04:16:07;;;;;;;15.73;7.03;;;;;;;-145.18;100.00;60484.78;5035285;28;20142;-69
2021/11/13 04:18:33;;;;;;;15.83;6.83;;;;;;;-145.18;100.00;60484.78;5037368;28;20099;-68
2021/11/13 04:20:58;;;;;;;15.60;6.77;;;;;;;-145.18;100.00;60484.78;5037205;28;20036;-68
2021/11/13 04:23:23;;;;;;;15.57;6.73;;;;;;;-145.18;100.00;60484.78;5037893;28;20032;-68
2021/11/13 04:25:49;;;;;;;15.77;7.27;;;;;;;-145.18;100.00;60484.78;5029480;28;20037;-68
2021/11/13 04:28:15;;;;;;;15.30;6.13;;;;;;;-145.18;100.00;60484.78;5033460;28;20274;-68
2021/11/13 04:30:41;;;;;;;15.03;6.50;;;;;;;-145.18;100.00;60484.78;5033819;28;20041;-68
2021/11/13 04:33:07;;;;;;;15.73;6.63;;;;;;;-145.18;100.00;60484.78;5038444;28;20114;-68
2021/11/13 04:38:01;;;;;;;16.33;7.00;;;;;;;-145.18;100.00;60484.78;5038377;28;20516;-68
2021/11/13 04:40:35;;;;;;;14.87;6.97;;;;;;;-145.18;100.00;60484.78;5032782;28;20025;-68
2021/11/13 04:43:01;;;;;;;24.40;7.37;;;;;;;-145.18;100.00;60484.78;5038374;28;20536;-68
2021/11/13 04:45:26;;;;;;;14.77;6.07;;;;;;;-145.18;100.00;60484.78;5037544;28;20029;-68
2021/11/13 04:47:52;;;;;;;16.80;7.23;;;;;;;-145.18;100.00;60484.78;5037957;28;20102;-68
2021/11/13 04:50:20;;;;;;;16.83;7.03;;;;;;;-145.18;100.00;60484.78;5038086;28;20251;-68
2021/11/13 04:52:47;;;;;;;17.33;7.23;;;;;;;-145.18;100.00;60484.78;5038367;28;20184;-68
2021/11/13 04:55:13;;;;;;;17.23;7.27;;;;;;;-145.18;100.00;60484.78;5040420;28;20626;-68
2021/11/13 04:57:40;;;;;;;21.77;7.80;;;;;;;-145.18;100.00;60484.78;5041992;28;20024;-68
2021/11/13 05:00:09;;;;;;;15.40;6.53;;;;;;;-145.18;100.00;60484.78;5038314;28;20504;-68
2021/11/13 05:02:35;;;;;;;17.47;7.87;;;;;;;-145.18;100.00;60484.78;5041083;28;20049;-68
2021/11/13 05:05:01;;;;;;;17.10;7.63;;;;;;;-145.18;100.00;60484.78;5036432;28;20041;-69
2021/11/13 05:07:27;;;;;;;17.43;7.67;;;;;;;-145.18;100.00;60484.78;5039771;28;20346;-68
2021/11/13 05:09:54;;;;;;;17.43;7.10;;;;;;;-145.18;100.00;60484.78;5037724;28;20564;-69
2021/11/13 05:12:20;;;;;;;16.23;7.67;;;;;;;-145.18;100.00;60484.78;5041432;28;20270;-68
2021/11/13 05:14:46;;;;;;;16.90;7.30;;;;;;;-145.18;100.00;60484.78;5038319;28;20466;-69
2021/11/13 05:17:11;;;;;;;16.50;7.10;;;;;;;-145.18;100.00;60484.78;5036276;28;20048;-69
2021/11/13 05:19:37;;;;;;;14.60;6.23;;;;;;;-145.18;100.00;60484.78;5040471;28;20584;-68
2021/11/13 05:22:03;;;;;;;16.23;7.37;;;;;;;-145.18;100.00;60484.78;5041304;28;20052;-68
2021/11/13 05:24:29;;;;;;;17.80;7.27;;;;;;;-145.18;100.00;60484.78;5040254;28;20033;-68
2021/11/13 05:26:54;;;;;;;17.80;7.03;;;;;;;-145.18;100.00;60484.78;5036641;28;20304;-68
2021/11/13 05:29:20;;;;;;;17.00;7.00;;;;;;;-145.18;100.00;60484.78;5040838;28;20527;-68
2021/11/13 05:31:45;;;;;;;16.53;6.60;;;;;;;-145.18;100.00;60484.78;5039660;28;20044;-68
2021/11/13 05:34:13;;;;;;;15.80;7.03;;;;;;;-145.18;100.00;60484.78;5040020;28;20028;-68
2021/11/13 05:36:38;;;;;;;17.90;7.77;;;;;;;-145.18;100.00;60484.78;5038039;28;20290;-69
2021/11/13 05:39:04;;;;;;;19.47;8.33;;;;;;;-145.18;100.00;60484.78;5041182;28;20116;-68
2021/11/13 05:41:29;;;;;;;18.53;7.63;;;;;;;-145.18;100.00;60484.78;5040017;28;20024;-69
2021/11/13 05:43:54;;;;;;;24.70;9.00;;;;;;;-145.18;100.00;60484.78;5035633;28;20029;-68
2021/11/13 05:46:21;;;;;;;22.80;8.63;;;;;;;-145.18;100.00;60484.78;5038887;28;22002;-68
2021/11/13 05:48:46;;;;;;;22.87;7.27;;;;;;;-145.18;100.00;60484.78;5040261;28;20036;-69
2021/11/13 05:51:12;;;;;;;24.77;8.73;;;;;;;-145.18;100.00;60484.78;5029314;28;20044;-68
2021/11/13 05:53:37;;;;;;;22.27;9.13;;;;;;;-145.18;100.00;60484.78;5040735;28;20086;-69
2021/11/13 05:56:03;;;;;;;26.53;10.50;;;;;;;-145.18;100.00;60484.78;5039987;28;20524;-69
2021/11/13 05:58:28;;;;;;;27.67;10.43;;;;;;;-145.18;100.00;60484.78;5039541;28;20039;-69
2021/11/13 06:00:54;;;;;;;24.93;9.83;;;;;;;-145.18;100.00;60484.78;5038125;28;20503;-69
2021/11/13 06:03:19;;;;;;;23.00;9.60;;;;;;;-145.18;100.00;60484.78;5038229;28;20268;-69
2021/11/13 06:05:45;;;;;;;26.50;9.73;;;;;;;-145.18;100.00;60484.78;5032705;28;20090;-69
2021/11/13 06:08:11;;;;;;;24.60;8.73;;;;;;;-145.18;100.00;60484.78;5040368;28;20389;-69
2021/11/13 06:10:38;;;;;;;25.77;9.77;;;;;;;-145.18;100.00;60484.78;5032075;28;20029;-69
2021/11/13 06:13:03;;;;;;;25.00;9.50;;;;;;;-145.18;100.00;60484.78;5038907;28;20284;-69
2021/11/13 06:15:28;;;;;;;25.07;9.73;;;;;;;-145.18;100.00;60484.78;5037967;28;20377;-69
2021/11/13 06:17:54;;;;;;;26.83;9.83;;;;;;;-145.18;100.00;60484.78;5039939;28;20075;-69
2021/11/13 06:20:19;;;;;;;30.20;10.20;;;;;;;-145.18;100.00;60484.78;5038881;28;20033;-69
2021/11/13 06:22:45;;;;;;;29.20;9.50;;;;;;;-145.18;100.00;60484.78;5038379;28;20025;-69
2021/11/13 06:25:11;;;;;;;27.13;10.13;;;;;;;-145.18;100.00;60484.78;5036898;28;20021;-69
2021/11/13 06:27:38;;;;;;;28.07;10.03;;;;;;;-145.18;100.00;60484.78;5039962;28;20174;-69
2021/11/13 06:30:06;;;;;;;33.50;11.80;;;;;;;-145.18;100.00;60484.78;5025453;28;20029;-69
2021/11/13 06:32:31;;;;;;;32.63;11.53;;;;;;;-145.18;100.00;60484.78;5038276;28;20114;-69
2021/11/13 06:34:59;;;;;;;30.37;10.60;;;;;;;-145.18;100.00;60484.78;5037407;28;20033;-69
2021/11/13 06:37:25;;;;;;;28.90;10.87;;;;;;;-145.18;100.00;60484.78;5039728;28;20044;-69
2021/11/13 06:39:50;;;;;;;33.57;10.80;;;;;;;-145.18;100.00;60484.78;5035629;28;20056;-69
2021/11/13 06:42:16;;;;;;;30.73;10.80;;;;;;;-145.18;100.00;60484.78;5029995;28;20078;-69
2021/11/13 06:44:41;;;;;;;29.37;10.50;;;;;;;-145.18;100.00;60484.78;5038459;28;20016;-69
2021/11/13 06:47:07;;;;;;;28.63;11.07;;;;;;;-145.18;100.00;60484.78;5039562;28;20089;-69
2021/11/13 06:49:32;;;;;;;27.30;9.80;;;;;;;-145.18;100.00;60484.78;5037251;28;20024;-69
2021/11/13 06:51:58;;;;;;;31.20;11.10;;;;;;;-145.18;100.00;60484.78;5030614;28;20028;-69
2021/11/13 06:54:23;;;;;;;34.37;11.30;;;;;;;-145.18;100.00;60484.78;5039126;28;20028;-69
2021/11/13 06:56:49;;;;;;;29.50;10.63;;;;;;;-145.18;100.00;60484.78;5038377;28;20382;-69
2021/11/13 06:59:15;;;;;;;32.90;10.83;;;;;;;-145.18;100.00;60484.78;5035761;28;20036;-69
2021/11/13 07:01:41;;;;;;;27.57;10.77;;;;;;;-145.18;100.00;60484.78;5036851;28;20517;-69
2021/11/13 07:04:06;;;;;;;27.70;10.63;;;;;;;-145.18;100.00;60484.78;5038853;28;20044;-69
2021/11/13 07:06:32;;;;;;;25.53;9.63;;;;;;;-145.18;100.00;60484.78;5029108;28;20155;-69
2021/11/13 07:08:58;;;;;;;28.40;9.47;;;;;;;-145.18;100.00;60484.78;5038091;28;20047;-69
2021/11/13 07:11:23;;;;;;;29.57;10.00;;;;;;;-145.18;100.00;60484.78;5029521;28;20032;-69
2021/11/13 07:13:49;;;;;;;29.10;9.50;;;;;;;-145.18;100.00;60484.78;5038446;28;20320;-69
2021/11/13 07:16:15;;;;;;;29.67;9.57;;;;;;;-145.18;100.00;60484.78;5033021;28;20106;-69
2021/11/13 07:18:40;;;;;;;26.03;9.73;;;;;;;-145.18;100.00;60484.78;5038678;28;20420;-69
2021/11/13 07:21:07;;;;;;;26.40;10.23;;;;;;;-145.18;100.00;60484.78;5038111;28;20098;-69
2021/11/13 07:23:34;;;;;;;27.40;11.07;;;;;;;-145.18;100.00;60484.78;5037950;28;20036;-69
2021/11/13 07:26:02;;;;;;;31.17;10.63;;;;;;;-145.18;100.00;60484.78;5034905;28;20053;-69
2021/11/13 07:28:39;;;;;;;25.60;10.13;;;;;;;-145.18;100.00;60484.78;5038566;28;20277;-69
2021/11/13 07:31:11;;;;;;;29.43;10.23;;;;;;;-145.18;100.00;60484.78;5035923;28;20040;-69
2021/11/13 07:33:38;;;;;;;31.80;10.70;;;;;;;-145.18;100.00;60484.78;5038869;28;20123;-69
2021/11/13 07:36:07;;;;;;;25.63;10.93;;;;;;;-145.18;100.00;60484.78;5036649;28;20477;-70
2021/11/13 07:38:32;;;;;;;23.67;9.50;;;;;;;-145.18;100.00;60484.78;5038949;28;20055;-69
2021/11/13 07:40:58;;;;;;;31.47;10.40;;;;;;;-145.18;100.00;60484.78;5034667;28;20218;-69
2021/11/13 07:43:23;;;;;;;27.00;10.20;;;;;;;-145.18;100.00;60484.78;5032377;28;20605;-70
2021/11/13 07:45:49;;;;;;;25.33;9.53;;;;;;;-145.18;100.00;60484.78;5037825;28;20212;-70
2021/11/13 07:48:17;;;;;;;24.53;10.13;;;;;;;-145.18;100.00;60484.78;5038936;28;20086;-70
2021/11/13 07:50:42;;;;;;;25.20;9.97;;;;;;;-145.18;100.00;60484.78;5034934;28;20055;-70
2021/11/13 07:53:08;;;;;;;24.63;9.40;;;;;;;-145.18;100.00;60484.78;5015059;28;20025;-70
2021/11/13 07:55:36;;;;;;;22.63;9.10;;;;;;;-145.18;100.00;60484.78;5037695;28;20036;-70
2021/11/13 07:58:02;;;;;;;27.43;9.30;;;;;;;-145.18;100.00;60484.78;5038092;28;20388;-69
2021/11/13 08:00:27;;;;;;;24.53;9.20;;;;;;;-145.18;100.00;60484.78;5035007;28;20551;-70
2021/11/13 08:02:54;;;;;;;25.77;9.07;;;;;;;-145.18;100.00;60484.78;5027225;28;20049;-70
2021/11/13 08:05:20;;;;;;;24.57;9.27;;;;;;;-145.18;100.00;60484.78;5034182;28;20525;-70
2021/11/13 08:07:50;;;;;;;21.00;8.53;;;;;;;-145.18;100.00;60484.78;5037933;28;20037;-70
2021/11/13 08:10:17;;;;;;;23.30;9.23;;;;;;;-145.18;100.00;60484.78;5030198;28;20042;-70
2021/11/13 08:12:43;;;;;;;23.17;8.70;;;;;;;-145.18;100.00;60484.78;5037788;28;20025;-70
2021/11/13 08:15:10;;;;;;;24.07;9.13;;;;;;;-145.18;100.00;60484.78;5033282;28;20286;-70
2021/11/13 08:17:36;;;;;;;22.27;9.03;;;;;;;-145.18;100.00;60484.78;5037826;28;20493;-70
2021/11/13 08:20:04;;;;;;;20.70;8.83;;;;;;;-145.18;100.00;60484.78;5032581;28;20056;-70
2021/11/13 08:22:30;;;;;;;21.37;8.87;;;;;;;-145.18;100.00;60484.78;5036334;28;20294;-70
2021/11/13 08:24:55;;;;;;;21.87;8.93;;;;;;;-145.18;100.00;60484.78;5029697;28;20116;-70
2021/11/13 08:27:21;;;;;;;22.17;8.47;;;;;;;-145.18;100.00;60484.78;5033744;28;20024;-70
2021/11/13 08:29:46;;;;;;;18.43;8.47;;;;;;;-145.18;100.00;60484.78;5038980;28;20024;-70
2021/11/13 08:32:12;;;;;;;21.60;8.67;;;;;;;-145.18;100.00;60484.78;5041355;28;20025;-69
2021/11/13 08:34:37;;;;;;;21.30;8.57;;;;;;;-145.18;100.00;60484.78;5041224;28;20024;-69
2021/11/13 08:37:04;;;;;;;26.73;9.13;;;;;;;-145.18;100.00;60484.78;5040313;28;20035;-70
2021/11/13 08:39:36;;;;;;;24.90;8.57;;;;;;;-145.18;100.00;60484.78;5039430;28;20482;-72
2021/11/13 08:42:11;;;;;;;19.35;8.48;;;;;;;-145.18;100.00;60484.78;5039080;28;20458;-71
2021/11/13 08:44:38;;;;;;;19.73;8.70;;;;;;;-145.18;100.00;60484.78;5038382;28;20036;-71
2021/11/13 08:47:04;;;;;;;18.30;8.47;;;;;;;-145.18;100.00;60484.78;5038871;28;20032;-70
2021/11/13 08:49:30;;;;;;;25.07;8.97;;;;;;;-145.18;100.00;60484.78;5037587;28;20029;-71
2021/11/13 08:51:57;;;;;;;23.80;8.37;;;;;;;-145.18;100.00;60484.78;5038198;28;20075;-72
2021/11/13 08:54:26;;;;;;;20.53;8.07;;;;;;;-145.18;100.00;60484.78;5041262;28;20246;-69
2021/11/13 08:56:51;;;;;;;20.83;8.40;;;;;;;-145.18;100.00;60484.78;5039951;28;20028;-69
2021/11/13 08:59:23;;;;;;;21.83;9.00;;;;;;;-145.18;100.00;60484.78;5036622;28;20333;-70
2021/11/13 09:01:50;;;;;;;20.88;8.30;;;;;;;-145.18;100.00;60484.78;5033499;28;20075;-72
2021/11/13 09:04:16;;;;;;;19.27;7.30;;;;;;;-145.18;100.00;60484.78;5041491;28;20033;-71
2021/11/13 09:06:42;;;;;;;21.40;8.87;;;;;;;-145.18;100.00;60484.78;5040892;28;20032;-70
2021/11/13 09:09:08;;;;;;;18.40;8.13;;;;;;;-145.18;100.00;60484.78;5042573;28;20376;-69
2021/11/13 09:11:38;;;;;;;21.27;8.40;;;;;;;-145.18;100.00;60484.78;5027797;28;20040;-72
2021/11/13 09:14:09;;;;;;;23.53;9.23;;;;;;;-145.18;100.00;60484.78;5042205;28;20028;-70
2021/11/13 09:16:35;;;;;;;22.80;8.73;;;;;;;-145.18;100.00;60484.78;5039190;28;20328;-72
2021/11/13 09:19:02;;;;;;;22.60;8.23;;;;;;;-145.18;100.00;60484.78;5040781;28;20166;-71
2021/11/13 09:21:29;;;;;;;18.63;7.70;;;;;;;-145.18;100.00;60484.78;5041012;28;20028;-70
2021/11/13 09:23:55;;;;;;;19.47;8.57;;;;;;;-145.18;100.00;60484.78;5041271;28;20489;-72
2021/11/13 09:26:22;;;;;;;20.00;8.13;;;;;;;-145.18;100.00;60484.78;5023011;28;20020;-71
2021/11/13 09:28:48;;;;;;;21.50;8.73;;;;;;;-145.18;100.00;60484.78;5040290;28;20051;-71
2021/11/13 09:31:13;;;;;;;23.77;8.37;;;;;;;-145.18;100.00;60484.78;5038981;28;20183;-71
2021/11/13 09:33:39;;;;;;;21.93;8.57;;;;;;;-145.18;100.00;60484.78;5040699;28;20071;-71
2021/11/13 09:36:05;;;;;;;21.13;7.67;;;;;;;-145.18;100.00;60484.78;5035425;28;20033;-71
2021/11/13 09:38:34;;;;;;;21.73;8.60;;;;;;;-145.18;100.00;60484.78;5040208;28;20029;-71
2021/11/13 09:41:05;;;;;;;23.23;9.03;;;;;;;-145.18;100.00;60484.78;5033069;28;20029;-72
2021/11/13 09:43:32;;;;;;;21.15;8.52;;;;;;;-145.18;100.00;60484.78;5040199;28;20140;-72
2021/11/13 09:46:00;;;;;;;20.37;8.73;;;;;;;-145.18;100.00;60484.78;5032312;28;20039;-72
2021/11/13 09:48:28;;;;;;;18.73;8.33;;;;;;;-145.18;100.00;60484.78;5040415;28;20035;-71
2021/11/13 09:50:53;;;;;;;25.27;9.10;;;;;;;-145.18;100.00;60484.78;5028519;28;20061;-71
2021/11/13 09:53:22;;;;;;;27.07;8.73;;;;;;;-145.18;100.00;60484.78;5039388;28;20468;-71
2021/11/13 09:55:48;;;;;;;24.23;9.07;;;;;;;-145.18;100.00;60484.78;5035360;28;20123;-72
2021/11/13 09:58:14;;;;;;;21.77;8.93;;;;;;;-145.18;100.00;60484.78;5040795;28;20029;-71
2021/11/13 10:00:44;;;;;;;21.00;9.20;;;;;;;-145.18;100.00;60484.78;5030190;28;20181;-71
2021/11/13 10:03:13;;;;;;;26.53;9.20;;;;;;;-145.18;100.00;60484.78;5039195;28;20455;-71
2021/11/13 10:05:41;;;;;;;21.83;8.53;;;;;;;-145.18;100.00;60484.78;5037548;28;20270;-72
2021/11/13 10:08:07;;;;;;;21.63;8.10;;;;;;;-145.18;100.00;60484.78;5040462;28;20017;-73
2021/11/13 10:10:40;;;;;;;19.73;8.37;;;;;;;-145.18;100.00;60484.78;5037277;28;20115;-72
2021/11/13 10:13:29;;;;;;;19.73;8.03;;;;;;;-145.18;100.00;60484.78;5039901;28;20060;-71
2021/11/13 10:15:58;;;;;;;17.77;8.57;;;;;;;-145.18;100.00;60484.78;5031094;28;20265;-72
2021/11/13 10:18:44;;;;;;;19.93;8.70;;;;;;;-145.18;100.00;60484.78;5040048;28;20036;-72
2021/11/13 10:21:17;;;;;;;19.63;8.27;;;;;;;-145.18;100.00;60484.78;5036224;28;20021;-71
2021/11/13 10:23:48;;;;;;;21.07;7.87;;;;;;;-145.18;100.00;60484.78;5039063;28;20021;-72
2021/11/13 10:26:21;;;;;;;18.67;7.33;;;;;;;-145.18;100.00;60484.78;5037710;28;20020;-72
2021/11/13 10:29:07;;;;;;;21.30;7.87;;;;;;;-145.18;100.00;60484.78;5038715;28;20035;-71
2021/11/13 10:31:45;;;;;;;17.30;7.43;;;;;;;-145.18;100.00;60484.78;5038534;28;20313;-71
2021/11/13 10:34:20;;;;;;;20.20;7.07;;;;;;;-145.18;100.00;60484.78;5028638;28;20032;-72
2021/11/13 10:36:52;;;;;;;17.27;7.60;;;;;;;-145.18;100.00;60484.78;5035502;28;20039;-70
2021/11/13 10:39:25;;;;;;;14.90;6.67;;;;;;;-145.18;100.00;60484.78;5037027;28;20105;-71
2021/11/13 10:41:57;;;;;;;17.83;7.50;;;;;;;-145.18;100.00;60484.78;5030921;28;20044;-71
2021/11/13 10:44:29;;;;;;;15.80;7.40;;;;;;;-145.18;100.00;60484.78;5033179;28;20031;-71
2021/11/13 10:46:57;;;;;;;18.40;7.32;;;;;;;-145.18;100.00;60484.78;5032812;28;20669;-70
2021/11/13 10:49:26;;;;;;;18.53;7.93;;;;;;;-145.18;100.00;60484.78;5031169;28;20032;-71
2021/11/13 10:51:53;;;;;;;21.77;7.33;;;;;;;-145.18;100.00;60484.78;5033614;28;20163;-71
2021/11/13 10:54:21;;;;;;;15.40;6.83;;;;;;;-145.18;100.00;60484.78;5033476;28;20036;-72
2021/11/13 10:57:11;;;;;;;18.47;7.80;;;;;;;-145.18;100.00;60484.78;5027820;28;20033;-71
2021/11/13 10:59:43;;;;;;;17.03;6.63;;;;;;;-145.18;100.00;60484.78;5023933;28;20025;-71
2021/11/13 11:02:15;;;;;;;16.23;7.72;;;;;;;-145.18;100.00;60484.78;5034234;28;20126;-73
2021/11/13 11:04:45;;;;;;;18.33;7.17;;;;;;;-145.18;100.00;60484.78;5033153;28;20143;-72